Time;durP1;ratioP1;P1;durP2;ratioP2;P2;SDS_P1;SDS_P2;PMS_P1;PMS_P2;Temp;Humidity;BMP_temperature;BMP_pressure;BME280_temperature;BME280_humidity;BME280_pressure;Samples;Min_cycle;Max_cycle;Signal;HPM_P1;HPM_P2
2022/02/02 00:00:06;;;;;;;50.97;6.82;;;;;;;8.29;73.21;101731.69;5020972;28;20026;-61
2022/02/02 00:02:41;;;;;;;50.53;6.82;;;;;;;8.28;73.39;101727.31;5016507;28;20042;-61
2022/02/02 00:05:20;;;;;;;44.58;6.88;;;;;;;8.32;72.94;101739.53;5006034;28;20030;-61
2022/02/02 00:08:04;;;;;;;52.85;7.72;;;;;;;8.31;73.16;101729.91;5025026;28;20030;-61
2022/02/02 00:13:03;;;;;;;40.38;6.10;;;;;;;8.19;73.43;101716.91;5028374;28;20029;-61
2022/02/02 00:15:53;;;;;;;47.05;6.13;;;;;;;8.20;73.52;101722.16;5029350;28;20025;-60
2022/02/02 00:21:07;;;;;;;35.88;5.97;;;;;;;8.12;73.77;101720.50;5028774;28;19959;-61
2022/02/02 00:23:39;;;;;;;37.97;5.60;;;;;;;8.06;74.08;101730.16;5029353;28;20033;-61
2022/02/02 00:26:10;;;;;;;49.63;6.55;;;;;;;8.03;74.00;101724.94;5028148;28;20034;-61
2022/02/02 00:28:40;;;;;;;41.47;7.05;;;;;;;7.99;74.36;101725.84;5045089;28;20047;-60
2022/02/02 00:31:10;;;;;;;38.00;5.75;;;;;;;8.06;74.20;101737.13;5047193;28;20037;-63
2022/02/02 00:33:44;;;;;;;42.60;6.07;;;;;;;8.05;73.96;101717.91;5019624;28;20117;-62
2022/02/02 00:36:15;;;;;;;48.50;7.32;;;;;;;7.99;74.40;101749.47;5026059;28;20063;-61
2022/02/02 00:38:40;;;;;;;34.85;5.65;;;;;;;8.02;74.14;101722.31;5044475;28;20104;-62
2022/02/02 00:41:05;;;;;;;38.83;5.40;;;;;;;7.95;74.42;101739.88;5020140;28;20034;-61
2022/02/02 00:43:31;;;;;;;40.92;6.90;;;;;;;7.89;74.84;101732.06;5026256;28;20434;-61
2022/02/02 00:45:57;;;;;;;49.83;8.48;;;;;;;7.83;74.79;101731.19;5022084;28;20468;-61
2022/02/02 00:48:26;;;;;;;43.85;6.25;;;;;;;7.81;74.68;101733.00;5029404;28;20468;-62
2022/02/02 00:50:51;;;;;;;;;;;;;;;7.80;74.75;101748.75;5028770;28;20053;-61
2022/02/02 00:53:17;;;;;;;43.17;6.57;;;;;;;7.77;74.85;101738.28;5028874;28;19960;-62
2022/02/02 00:55:43;;;;;;;40.83;5.60;;;;;;;7.80;74.57;101744.34;5028115;28;20494;-62
2022/02/02 00:58:09;;;;;;;53.60;7.00;;;;;;;7.77;74.90;101741.75;5027777;28;20021;-61
2022/02/02 01:00:34;;;;;;;49.35;7.63;;;;;;;7.79;74.76;101742.63;5027259;28;20383;-61
2022/02/02 01:02:59;;;;;;;47.63;6.53;;;;;;;7.76;74.75;101758.38;5026268;28;20045;-62
2022/02/02 01:05:25;;;;;;;43.17;6.72;;;;;;;7.82;74.67;101749.59;5003826;28;20057;-60
2022/02/02 01:08:22;;;;;;;38.10;6.13;;;;;;;7.85;74.45;101736.44;5024886;28;20480;-61
2022/02/02 01:11:02;;;;;;;44.25;6.00;;;;;;;7.84;74.57;101756.59;5027388;28;20036;-61
2022/02/02 01:14:39;;;;;;;46.85;6.38;;;;;;;7.87;74.33;101760.94;5028063;28;20018;-60
2022/02/02 01:19:28;;;;;;;55.85;6.50;;;;;;;7.98;74.08;101763.47;5027929;28;20048;-61
2022/02/02 01:29:48;;;;;;;55.90;7.65;;;;;;;7.87;74.54;101739.06;5026874;28;20391;-62
2022/02/02 01:32:14;;;;;;;45.83;6.78;;;;;;;7.79;74.94;101760.09;5027555;28;20025;-61
2022/02/02 01:34:39;;;;;;;43.15;5.93;;;;;;;7.75;75.07;101754.03;5028007;28;20026;-61
2022/02/02 01:37:05;;;;;;;37.53;6.30;;;;;;;7.67;75.40;101766.31;5014182;28;20562;-61
2022/02/02 01:39:31;;;;;;;45.75;6.07;;;;;;;7.61;75.42;101742.75;5007251;28;20022;-61
2022/02/02 01:41:58;;;;;;;37.72;5.57;;;;;;;7.63;75.35;101761.97;5020778;28;20025;-63
2022/02/02 01:44:33;;;;;;;49.05;7.32;;;;;;;7.59;75.52;101772.47;5008087;28;20435;-61
2022/02/02 01:47:00;;;;;;;39.05;5.90;;;;;;;7.62;75.54;101807.44;5007838;28;20136;-61
2022/02/02 01:52:21;;;;;;;45.30;7.13;;;;;;;7.80;74.77;101791.56;5007380;28;20037;-61
2022/02/02 01:59:47;;;;;;;37.22;5.63;;;;;;;7.83;75.15;101812.53;5022765;28;20033;-61
2022/02/02 02:02:12;;;;;;;55.47;7.28;;;;;;;7.92;74.63;101816.88;5020704;28;20072;-62
2022/02/02 02:04:38;;;;;;;52.67;7.45;;;;;;;7.90;75.15;101802.91;5010556;28;20021;-61
2022/02/02 02:07:04;;;;;;;54.42;7.55;;;;;;;7.91;75.00;101809.00;5019658;28;20034;-63
2022/02/02 02:09:30;;;;;;;60.08;7.85;;;;;;;7.96;74.90;101807.22;4990114;28;20034;-61
2022/02/02 02:11:57;;;;;;;51.28;6.65;;;;;;;7.91;75.06;101819.50;5006593;28;20196;-60
2022/02/02 02:17:06;;;;;;;52.47;7.00;;;;;;;7.91;75.36;101811.63;5006784;28;20040;-61
2022/02/02 02:19:32;;;;;;;62.08;7.28;;;;;;;7.97;75.12;101794.09;5007030;28;20018;-61
2022/02/02 02:21:58;;;;;;;54.20;8.40;;;;;;;7.96;75.28;101795.00;5006858;28;20030;-61
2022/02/02 02:24:23;;;;;;;42.63;6.50;;;;;;;7.96;74.92;101818.59;5006394;28;20030;-60
2022/02/02 02:26:49;;;;;;;48.22;6.80;;;;;;;8.04;74.93;101810.66;5023568;28;20028;-60
2022/02/02 02:29:35;;;;;;;57.95;7.22;;;;;;;8.05;74.81;101806.28;5041130;28;20028;-62
2022/02/02 02:34:54;;;;;;;46.88;6.95;;;;;;;8.07;74.36;101784.38;5043846;28;20040;-60
2022/02/02 02:39:58;;;;;;;51.10;8.00;;;;;;;8.07;74.78;101805.38;5036162;28;20087;-62
2022/02/02 02:56:06;;;;;;;44.50;6.53;;;;;;;8.13;74.03;101782.59;5024288;28;20424;-62
2022/02/02 03:31:19;;;;;;;41.67;5.80;;;;;;;8.02;75.34;101793.19;5025615;28;20047;-61
2022/02/02 03:50:52;;;;;;;40.42;6.70;;;;;;;8.05;74.79;101795.78;5016778;28;20045;-60
2022/02/02 03:59:00;;;;;;;52.00;6.65;;;;;;;8.11;74.97;101801.00;5029579;28;20521;-62
2022/02/02 04:06:57;;;;;;;50.42;6.57;;;;;;;8.07;75.02;101808.00;5029580;28;20127;-62
2022/02/02 04:09:23;;;;;;;50.15;6.05;;;;;;;8.11;75.22;101806.25;5028623;28;20037;-62
2022/02/02 04:11:58;;;;;;;45.13;6.60;;;;;;;8.06;75.32;101814.16;5022053;28;20036;-62
2022/02/02 04:55:05;;;;;;;49.78;5.82;;;;;;;7.92;76.23;101848.34;5032115;28;20041;-61
2022/02/02 05:00:21;;;;;;;40.15;7.15;;;;;;;7.94;76.07;101850.97;5010285;28;20048;-61
2022/02/02 05:11:12;;;;;;;45.95;6.70;;;;;;;8.00;76.15;101852.72;5046064;28;20379;-61
2022/02/02 05:40:58;;;;;;;37.45;6.65;;;;;;;7.99;76.32;101864.94;5027329;28;20040;-62
2022/02/02 05:41:18;;;;;;;44.35;6.00;;;;;;;7.97;76.41;101872.84;5028042;28;20549;-61
2022/02/02 05:51:15;;;;;;;55.65;7.55;;;;;;;7.79;77.43;101894.81;5026469;28;20113;-61
2022/02/02 05:53:41;;;;;;;39.53;6.00;;;;;;;7.80;77.60;101890.44;5015055;28;20175;-61
2022/02/02 05:56:07;;;;;;;54.33;6.50;;;;;;;7.79;77.43;101894.81;5046543;28;20103;-60
2022/02/02 05:58:37;;;;;;;48.63;6.47;;;;;;;7.76;77.83;101889.56;5045680;28;20456;-60
2022/02/02 06:01:02;;;;;;;53.33;6.82;;;;;;;7.76;77.63;101893.94;5038726;28;20021;-63
2022/02/02 06:03:49;;;;;;;48.90;8.32;;;;;;;7.73;77.83;101894.81;5026455;28;20166;-61
2022/02/02 06:06:15;;;;;;;54.70;6.55;;;;;;;7.75;77.85;101897.44;5025810;28;20473;-64
2022/02/02 06:08:43;;;;;;;52.58;6.65;;;;;;;7.75;77.86;101892.19;5025317;28;20032;-62
2022/02/02 06:11:11;;;;;;;44.58;5.97;;;;;;;7.72;77.90;101893.09;5025922;28;20112;-61
2022/02/02 06:13:42;;;;;;;54.58;6.47;;;;;;;7.70;77.99;101905.31;5026374;28;20025;-62
2022/02/02 06:16:08;;;;;;;44.38;5.97;;;;;;;7.69;77.97;101911.47;5022654;28;20463;-60
2022/02/02 06:18:35;;;;;;;42.80;6.30;;;;;;;7.73;77.88;101901.84;5005472;28;20030;-61
2022/02/02 06:21:04;;;;;;;46.50;6.63;;;;;;;7.68;78.18;101900.09;5005955;28;20889;-61
2022/02/02 06:23:30;;;;;;;55.42;6.95;;;;;;;7.73;77.98;101914.97;5010727;28;20013;-61
2022/02/02 06:25:59;;;;;;;43.63;5.57;;;;;;;7.77;77.53;101928.03;5016939;28;20479;-61
2022/02/02 06:28:25;;;;;;;47.10;6.22;;;;;;;7.74;77.86;101920.22;5019907;28;20052;-62
2022/02/02 06:30:58;;;;;;;46.58;6.53;;;;;;;7.70;77.92;101914.09;5027682;28;20064;-62
2022/02/02 06:33:35;;;;;;;45.85;7.40;;;;;;;7.73;77.75;101913.19;5044947;28;20041;-61
2022/02/02 06:36:03;;;;;;;38.55;5.25;;;;;;;7.67;77.90;101914.09;5045529;28;20033;-61
2022/02/02 06:38:31;;;;;;;43.33;6.38;;;;;;;7.62;78.35;101925.50;5045173;28;20040;-62
2022/02/02 06:41:00;;;;;;;40.58;6.63;;;;;;;7.58;78.42;101933.38;5045214;28;20036;-63
2022/02/02 06:43:27;;;;;;;45.60;7.35;;;;;;;7.51;78.80;101941.25;5044818;28;20036;-62
2022/02/02 06:45:54;;;;;;;43.97;7.03;;;;;;;7.51;78.87;101933.38;5044637;28;20049;-60
2022/02/02 06:48:20;;;;;;;40.75;6.25;;;;;;;7.46;78.84;101944.78;5027059;28;20025;-61
2022/02/02 06:50:59;;;;;;;53.47;7.53;;;;;;;7.51;78.99;101947.38;5036284;28;20033;-62
2022/02/02 06:53:40;;;;;;;44.38;6.10;;;;;;;7.46;79.36;101934.28;5005035;28;20033;-63
2022/02/02 06:56:26;;;;;;;49.50;6.07;;;;;;;7.49;79.25;101937.78;5029431;28;20033;-62
2022/02/02 07:05:03;;;;;;;43.80;5.95;;;;;;;7.41;79.75;101954.38;5045756;28;20465;-61
2022/02/02 07:10:27;;;;;;;37.05;6.05;;;;;;;7.51;79.39;101967.50;5028758;28;20033;-63
2022/02/02 07:13:47;;;;;;;34.95;5.35;;;;;;;7.52;79.48;101964.88;5044960;28;20052;-62
2022/02/02 07:16:15;;;;;;;54.10;6.03;;;;;;;7.55;79.54;101979.72;5026149;28;20084;-62
2022/02/02 07:29:07;;;;;;;45.60;5.85;;;;;;;7.71;79.53;101993.69;5009999;28;20068;-60
2022/02/02 07:31:41;;;;;;;36.33;5.60;;;;;;;7.71;79.51;101988.44;5008270;28;20461;-60
2022/02/02 07:34:20;;;;;;;40.65;5.72;;;;;;;7.67;79.64;101995.41;4991979;28;20070;-59
2022/02/02 07:36:48;;;;;;;43.47;5.78;;;;;;;7.61;79.91;101994.59;4991992;28;20100;-60
2022/02/02 07:39:14;;;;;;;44.58;6.28;;;;;;;7.62;79.56;101991.97;5028777;28;20025;-61
2022/02/02 07:41:46;;;;;;;45.35;6.22;;;;;;;7.58;79.69;101998.94;5028572;28;20369;-61
2022/02/02 07:44:18;;;;;;;50.67;5.38;;;;;;;7.55;79.91;101996.34;5029309;28;20048;-62
2022/02/02 07:46:46;;;;;;;33.50;4.80;;;;;;;7.57;79.68;102006.81;5029046;28;20523;-63
2022/02/02 07:49:15;;;;;;;37.70;5.38;;;;;;;7.61;79.57;102007.69;5029426;28;20032;-65
2022/02/02 07:51:42;;;;;;;27.50;4.25;;;;;;;7.67;79.00;102005.91;5036510;28;20551;-63
2022/02/02 07:54:15;;;;;;;40.22;5.55;;;;;;;7.68;79.17;102012.03;5046549;28;20031;-62
2022/02/02 07:56:42;;;;;;;39.65;4.55;;;;;;;7.77;78.85;102027.75;5009128;28;20037;-61
2022/02/02 07:59:19;;;;;;;35.80;4.22;;;;;;;7.81;78.93;102021.63;5007823;28;20493;-62
2022/02/02 08:01:47;;;;;;;38.08;5.60;;;;;;;7.89;78.65;102021.56;5009202;28;20121;-64
2022/02/02 08:04:14;;;;;;;27.85;4.72;;;;;;;7.90;78.57;102025.97;5013280;28;20032;-65
2022/02/02 08:06:41;;;;;;;41.20;5.38;;;;;;;7.95;78.70;102033.84;5022461;28;20030;-64
2022/02/02 08:09:09;;;;;;;35.75;4.65;;;;;;;7.93;78.88;102033.84;5015727;28;20037;-65
2022/02/02 08:11:37;;;;;;;21.27;4.22;;;;;;;8.13;78.43;102027.59;5017564;28;20029;-62
2022/02/02 08:14:03;;;;;;;31.35;4.93;;;;;;;8.21;78.44;102023.22;5019027;28;20050;-62
2022/02/02 08:16:30;;;;;;;27.00;4.13;;;;;;;8.22;78.68;102019.69;5018893;28;20112;-62
2022/02/02 08:18:55;;;;;;;24.10;3.42;;;;;;;8.32;78.16;102025.78;5018372;28;20041;-61
2022/02/02 08:21:21;;;;;;;20.98;3.45;;;;;;;8.39;78.31;102038.88;5020158;28;20064;-62
2022/02/02 08:23:47;;;;;;;21.73;4.03;;;;;;;8.42;78.34;102041.47;5015453;28;20071;-63
2022/02/02 08:26:15;;;;;;;28.90;4.15;;;;;;;8.52;78.25;102043.16;5018887;28;20108;-64
2022/02/02 08:28:45;;;;;;;22.95;3.03;;;;;;;8.52;78.18;102053.69;5019020;28;20079;-59
2022/02/02 08:31:12;;;;;;;27.45;3.60;;;;;;;8.62;78.26;102054.53;5018242;28;20097;-61
2022/02/02 08:33:40;;;;;;;18.55;3.30;;;;;;;8.66;78.33;102074.66;5016459;28;20030;-59
2022/02/02 08:36:10;;;;;;;21.02;3.95;;;;;;;8.63;78.59;102058.91;5017281;28;20038;-60
2022/02/02 08:39:03;;;;;;;25.27;4.15;;;;;;;8.58;78.72;102052.81;5017082;28;20033;-61
2022/02/02 08:41:36;;;;;;;25.58;3.35;;;;;;;8.66;78.64;102052.75;5026171;28;20570;-61
2022/02/02 08:44:09;;;;;;;26.50;4.63;;;;;;;8.61;78.69;102051.94;5027686;28;20076;-60
2022/02/02 08:46:39;;;;;;;23.27;3.72;;;;;;;8.67;78.78;102057.16;5027563;28;20068;-60
2022/02/02 08:49:08;;;;;;;20.55;4.10;;;;;;;8.71;78.58;102061.50;5022050;28;20034;-60
2022/02/02 08:51:39;;;;;;;23.70;3.75;;;;;;;8.72;78.66;102061.50;5030508;28;20124;-60
2022/02/02 09:02:09;;;;;;;22.10;3.33;;;;;;;8.82;78.69;102077.19;5029979;28;20064;-60
2022/02/02 09:07:19;;;;;;;23.42;3.20;;;;;;;8.83;78.73;102095.59;5025913;28;20119;-67
2022/02/02 09:26:11;;;;;;;20.48;3.08;;;;;;;9.12;77.56;102100.66;5018772;28;20415;-61
2022/02/02 09:34:05;;;;;;;21.52;3.50;;;;;;;9.21;78.05;102101.44;5007617;28;20073;-61
2022/02/02 09:36:33;;;;;;;22.17;3.20;;;;;;;9.16;78.27;102108.50;5016345;28;20515;-60
2022/02/02 09:39:06;;;;;;;31.17;3.85;;;;;;;9.26;77.75;102104.03;5025784;28;20208;-61
2022/02/02 09:44:05;;;;;;;18.30;2.80;;;;;;;9.35;77.43;102106.59;5018488;28;20046;-60
2022/02/02 09:46:59;;;;;;;22.77;3.58;;;;;;;9.35;77.20;102126.75;5008974;28;20029;-62
2022/02/02 09:49:34;;;;;;;21.98;3.55;;;;;;;9.39;76.89;102122.38;5014792;28;20083;-64
2022/02/02 09:52:05;;;;;;;18.83;3.45;;;;;;;9.40;77.31;102113.56;5019471;28;20026;-63
2022/02/02 09:55:01;;;;;;;22.75;3.33;;;;;;;9.46;77.45;102118.78;5017344;28;20064;-60
2022/02/02 10:00:31;;;;;;;15.50;2.65;;;;;;;9.63;76.67;102126.53;5012103;28;20038;-58
2022/02/02 10:08:23;;;;;;;20.67;3.03;;;;;;;9.57;76.37;102148.50;5024580;28;20038;-63
2022/02/02 10:10:57;;;;;;;22.38;3.00;;;;;;;9.58;76.20;102152.88;5025079;28;20037;-63
2022/02/02 10:13:46;;;;;;;19.98;3.35;;;;;;;9.56;76.94;102156.41;5025202;28;20423;-64
2022/02/02 10:16:18;;;;;;;13.05;2.80;;;;;;;9.71;76.52;102161.56;5019061;28;20084;-63
2022/02/02 10:18:43;;;;;;;27.95;3.20;;;;;;;9.78;75.93;102164.13;5007256;28;20053;-63
2022/02/02 10:21:08;;;;;;;19.38;3.40;;;;;;;9.75;76.70;102165.00;5018456;28;20724;-64
2022/02/02 10:23:35;;;;;;;17.30;2.80;;;;;;;9.81;76.03;102178.13;5005685;28;20100;-65
2022/02/02 10:26:18;;;;;;;18.90;3.25;;;;;;;9.68;76.35;102184.38;5005169;28;20029;-65
2022/02/02 10:28:44;;;;;;;14.93;2.28;;;;;;;9.81;75.70;102177.28;5006018;28;20346;-66
2022/02/02 10:31:11;;;;;;;16.20;3.22;;;;;;;9.89;75.69;102182.44;5006352;28;20500;-64
2022/02/02 10:33:37;;;;;;;22.60;3.78;;;;;;;9.97;75.39;102184.09;5005979;28;20476;-64
2022/02/02 10:36:20;;;;;;;15.30;2.83;;;;;;;9.92;75.05;102192.94;5018846;28;20430;-65
2022/02/02 10:39:14;;;;;;;17.42;3.17;;;;;;;10.01;75.12;102198.13;5044875;28;20557;-65
2022/02/02 10:41:50;;;;;;;14.77;3.35;;;;;;;9.95;75.24;102198.19;5042484;28;20459;-65
2022/02/02 10:44:25;;;;;;;17.25;3.22;;;;;;;9.92;75.21;102193.84;5041337;28;20032;-65
2022/02/02 10:46:56;;;;;;;12.25;2.75;;;;;;;10.05;74.93;102199.00;5014739;28;20076;-64
2022/02/02 10:52:04;;;;;;;19.52;2.70;;;;;;;10.14;74.76;102195.38;5016110;28;20148;-61
2022/02/02 11:07:54;;;;;;;20.58;3.20;;;;;;;10.77;72.05;102199.06;5005361;28;20364;-55
2022/02/02 11:10:19;;;;;;;18.73;3.13;;;;;;;10.74;72.64;102200.00;5007631;28;20067;-64
2022/02/02 11:12:47;;;;;;;21.23;3.88;;;;;;;10.90;71.39;102204.19;5005996;28;20442;-62
2022/02/02 11:15:27;;;;;;;16.88;3.00;;;;;;;11.07;71.39;102204.84;4997637;28;20022;-63
2022/02/02 11:18:32;;;;;;;23.65;4.68;;;;;;;11.14;70.91;102210.03;4990222;28;20049;-62
2022/02/02 11:21:12;;;;;;;16.67;2.88;;;;;;;11.23;71.44;102202.84;4942760;28;20055;-61
2022/02/02 11:23:42;;;;;;;12.57;2.50;;;;;;;11.28;70.92;102200.13;4982643;28;20489;-63
2022/02/02 11:26:08;;;;;;;18.77;3.25;;;;;;;11.44;70.55;102189.34;4999777;28;20781;-60
2022/02/02 11:28:35;;;;;;;15.88;2.72;;;;;;;11.40;69.57;102187.63;5001393;28;20018;-60
2022/02/02 11:31:15;;;;;;;16.35;2.50;;;;;;;11.15;70.62;102193.28;5002715;28;20607;-62
2022/02/02 11:33:53;;;;;;;16.55;3.17;;;;;;;11.11;70.87;102188.06;5002621;28;20515;-60
2022/02/02 11:36:34;;;;;;;13.38;3.28;;;;;;;11.04;71.12;102196.06;5002473;28;20480;-61
2022/02/02 11:39:05;;;;;;;14.77;2.60;;;;;;;11.13;71.07;102195.97;4998665;28;20024;-60
2022/02/02 11:41:42;;;;;;;16.35;3.35;;;;;;;11.03;71.60;102200.50;5000859;28;20048;-60
2022/02/02 11:44:23;;;;;;;16.58;2.80;;;;;;;10.99;71.37;102198.81;4987831;28;20025;-65
2022/02/02 11:47:20;;;;;;;16.48;2.72;;;;;;;10.95;71.63;102191.81;4976535;28;20028;-63
2022/02/02 11:49:48;;;;;;;12.73;2.88;;;;;;;10.87;70.94;102190.16;4990390;28;20545;-69
2022/02/02 11:52:35;;;;;;;19.67;3.40;;;;;;;10.75;71.43;102190.34;5019377;28;20025;-62
2022/02/02 11:55:03;;;;;;;22.88;4.65;;;;;;;10.76;71.27;102188.53;5001265;28;20037;-61
2022/02/02 11:58:01;;;;;;;20.17;3.60;;;;;;;10.77;71.80;102188.53;5002734;28;20033;-61
2022/02/02 12:00:34;;;;;;;13.27;2.92;;;;;;;10.62;72.18;102200.13;5001164;28;20031;-62
2022/02/02 12:58:02;;;;;;;20.25;3.40;;;;;;;12.21;64.90;102159.88;5022931;28;20029;-64
2022/02/02 13:00:40;;;;;;;23.98;4.60;;;;;;;12.39;63.68;102155.97;5027730;28;20026;-60
2022/02/02 13:03:06;;;;;;;18.63;2.88;;;;;;;12.38;64.30;102163.03;5027140;28;20041;-61
2022/02/02 13:05:35;;;;;;;19.70;3.58;;;;;;;12.23;63.71;102160.72;5023281;28;20033;-66
2022/02/02 13:08:00;;;;;;;18.98;2.85;;;;;;;11.95;65.16;102154.13;5016149;28;20025;-61
2022/02/02 13:10:28;;;;;;;18.42;3.60;;;;;;;11.68;65.59;102164.31;5026764;28;20051;-63
2022/02/02 13:13:20;;;;;;;24.55;3.50;;;;;;;11.60;66.27;102156.53;5027222;28;20029;-60
2022/02/02 13:26:11;;;;;;;25.30;3.63;;;;;;;12.40;64.23;102164.78;5047321;28;20041;-60
2022/02/02 13:29:07;;;;;;;19.83;3.38;;;;;;;12.45;63.87;102169.09;5045704;28;20028;-64
2022/02/02 13:34:29;;;;;;;24.17;3.60;;;;;;;12.42;64.06;102155.91;5045735;28;20570;-63
2022/02/02 14:04:24;;;;;;;;;;;;;;;12.64;63.85;102177.50;5016127;28;20025;-61
2022/02/02 14:33:33;;;;;;;15.57;2.50;;;;;;;11.11;69.54;102192.50;5017232;28;20370;-64
2022/02/02 14:36:01;;;;;;;15.13;2.80;;;;;;;11.00;70.24;102197.91;5005570;28;20052;-58
2022/02/02 14:38:34;;;;;;;9.37;2.43;;;;;;;11.03;70.51;102200.50;5013117;28;20116;-64
2022/02/02 14:41:12;;;;;;;12.65;2.63;;;;;;;10.85;70.71;102197.22;5023102;28;20067;-62
2022/02/02 14:44:04;;;;;;;12.65;2.20;;;;;;;10.83;70.66;102211.31;5010602;28;20259;-60
2022/02/02 14:46:32;;;;;;;18.60;2.47;;;;;;;10.83;70.80;102217.47;5027302;28;20095;-63
2022/02/02 14:49:05;;;;;;;17.05;3.00;;;;;;;10.72;70.69;102211.47;5009051;28;20503;-64
2022/02/02 15:16:46;;;;;;;11.23;2.33;;;;;;;10.23;72.74;102208.44;5013908;28;20045;-62
2022/02/02 15:24:03;;;;;;;10.27;2.80;;;;;;;10.23;73.58;102193.53;4997852;28;20052;-63
2022/02/02 15:27:15;;;;;;;15.07;3.33;;;;;;;10.18;73.61;102197.09;5014249;28;20048;-61
2022/02/02 15:29:26;;;;;;;17.15;5.47;;;;;;;10.17;73.38;102195.38;5015612;28;20041;-61
2022/02/02 15:31:51;;;;;;;16.77;5.63;;;;;;;10.17;73.58;102208.53;5005594;28;20224;-61
2022/02/02 15:34:25;;;;;;;18.10;5.78;;;;;;;10.11;74.04;102207.69;5014447;28;20029;-62
2022/02/02 15:39:29;;;;;;;19.85;6.00;;;;;;;9.94;74.14;102199.09;5017971;28;20033;-60
2022/02/02 15:56:26;;;;;;;11.43;3.97;;;;;;;9.81;74.96;102196.56;5018460;28;20575;-61
2022/02/02 15:58:23;;;;;;;14.32;3.28;;;;;;;9.75;75.35;102201.88;5012787;28;20037;-61
2022/02/02 16:03:17;;;;;;;13.20;3.03;;;;;;;9.58;75.43;102202.03;5028755;28;20061;-65
2022/02/02 16:05:48;;;;;;;10.40;2.60;;;;;;;9.55;74.95;102204.66;5029056;28;20033;-61
2022/02/02 16:08:16;;;;;;;11.02;2.60;;;;;;;9.43;75.68;102205.63;5023392;28;20038;-61
2022/02/02 16:10:51;;;;;;;13.05;3.03;;;;;;;9.37;75.48;102195.16;5029267;28;20332;-62
2022/02/02 16:15:56;;;;;;;10.80;2.72;;;;;;;9.29;75.86;102190.81;5029142;28;20064;-64
2022/02/02 16:32:37;;;;;;;13.00;3.47;;;;;;;8.86;77.54;102191.94;5011568;28;20041;-66
2022/02/02 16:35:27;;;;;;;14.32;3.88;;;;;;;8.71;78.17;102200.78;5023581;28;20132;-61
2022/02/02 16:37:55;;;;;;;18.52;3.20;;;;;;;8.70;78.01;102194.63;5016497;28;20044;-63
2022/02/02 16:40:22;;;;;;;;;;;;;;;8.70;78.53;102188.53;5021525;28;20125;-61
2022/02/02 16:45:28;;;;;;;13.05;2.85;;;;;;;8.56;79.05;102196.44;5020590;28;20037;-62
2022/02/02 16:47:54;;;;;;;12.35;2.75;;;;;;;8.63;78.90;102205.16;5022075;28;20029;-66
2022/02/02 16:50:23;;;;;;;10.80;3.13;;;;;;;8.62;79.29;102200.81;5026004;28;20033;-66
2022/02/02 16:52:52;;;;;;;19.77;4.28;;;;;;;8.70;79.28;102206.91;5026296;28;20040;-67
2022/02/02 16:55:48;;;;;;;15.35;3.33;;;;;;;8.73;79.50;102209.50;5021991;28;20087;-66
2022/02/02 17:26:33;;;;;;;9.48;4.35;;;;;;;9.06;79.96;102190.97;5025006;28;20072;-61
2022/02/02 17:33:06;;;;;;;15.85;5.85;;;;;;;9.10;79.98;102208.47;5027829;28;20038;-60
2022/02/02 17:35:40;;;;;;;13.82;5.65;;;;;;;9.09;80.20;102211.97;5024763;28;20040;-61
2022/02/02 18:20:43;;;;;;;18.75;10.50;;;;;;;8.93;81.99;102200.66;5026690;28;20663;-60
2022/02/02 18:26:21;;;;;;;21.30;11.68;;;;;;;8.98;81.84;102198.91;5026397;28;20358;-62
2022/02/02 18:31:40;;;;;;;26.00;13.93;;;;;;;8.95;82.12;102209.44;5026886;28;20044;-61
2022/02/02 18:37:03;;;;;;;19.73;11.13;;;;;;;9.05;81.64;102187.47;5025179;28;20040;-61
2022/02/02 18:45:12;;;;;;;22.77;12.70;;;;;;;9.09;81.91;102206.69;5023521;28;20042;-62
2022/02/02 18:53:03;;;;;;;26.42;14.32;;;;;;;9.02;82.26;102210.25;5022128;28;20029;-60
2022/02/02 18:58:09;;;;;;;24.75;12.68;;;;;;;9.03;82.31;102209.41;5024183;28;20041;-64
2022/02/02 19:01:26;;;;;;;26.35;14.90;;;;;;;9.02;82.59;102199.75;5030601;28;20044;-64
2022/02/02 19:39:32;;;;;;;30.30;13.63;;;;;;;8.98;84.24;102191.00;5026125;28;20114;-65
2022/02/02 19:55:35;;;;;;;35.45;16.90;;;;;;;8.94;84.82;102177.00;5002503;28;20610;-65
2022/02/02 20:11:38;;;;;;;37.40;16.58;;;;;;;8.89;84.87;102167.38;5025721;28;20093;-64
2022/02/02 20:14:04;;;;;;;31.40;15.18;;;;;;;8.93;84.68;102169.13;5025357;28;20079;-64
2022/02/02 20:16:29;;;;;;;34.35;15.52;;;;;;;8.90;84.84;102166.50;5025360;28;20128;-63
2022/02/02 20:18:58;;;;;;;26.70;13.32;;;;;;;8.98;84.13;102167.34;5025244;28;20057;-63
2022/02/02 20:21:27;;;;;;;32.90;15.50;;;;;;;8.95;84.17;102172.63;5024656;28;20040;-63
2022/02/02 20:23:53;;;;;;;30.55;13.95;;;;;;;8.89;84.50;102163.03;5025446;28;20057;-63
2022/02/02 20:26:22;;;;;;;23.30;12.25;;;;;;;8.91;84.05;102170.91;5025529;28;20045;-65
2022/02/02 20:28:47;;;;;;;25.23;11.57;;;;;;;8.88;84.49;102166.50;5028255;28;20074;-65
2022/02/02 20:31:14;;;;;;;25.05;10.98;;;;;;;8.94;83.94;102161.22;5029337;28;20025;-63
2022/02/02 20:33:40;;;;;;;23.67;10.57;;;;;;;8.97;83.94;102171.72;5029451;28;20102;-65
2022/02/02 20:36:05;;;;;;;23.30;11.27;;;;;;;8.92;83.96;102170.88;5024335;28;20488;-63
2022/02/02 20:38:30;;;;;;;17.73;10.13;;;;;;;8.93;84.08;102169.13;5026827;28;20029;-66
2022/02/02 20:40:56;;;;;;;20.77;9.70;;;;;;;8.98;83.68;102170.84;5025020;28;20022;-65
2022/02/02 20:43:35;;;;;;;21.55;9.90;;;;;;;8.96;83.58;102169.09;5028609;28;20033;-65
2022/02/02 21:08:16;;;;;;;15.23;7.30;;;;;;;8.83;83.39;102166.56;5024191;28;20090;-65
2022/02/02 21:10:39;;;;;;;20.67;7.47;;;;;;;8.85;83.20;102156.00;5028279;28;20082;-64
2022/02/02 21:15:50;;;;;;;15.50;8.05;;;;;;;8.80;83.72;102169.19;5025119;28;20049;-64
2022/02/02 21:18:19;;;;;;;22.58;8.50;;;;;;;8.85;83.19;102167.41;5028492;28;20034;-63
2022/02/02 21:23:55;;;;;;;17.23;7.00;;;;;;;8.83;83.72;102163.94;5028206;28;20045;-64
2022/02/02 21:29:17;;;;;;;12.93;6.13;;;;;;;8.93;83.03;102170.00;4983517;28;20037;-63
2022/02/02 21:31:43;;;;;;;14.95;6.00;;;;;;;8.84;83.28;102165.66;5028474;28;20025;-64
2022/02/02 21:34:08;;;;;;;15.63;6.07;;;;;;;8.82;83.46;102167.41;5027977;28;20138;-65
2022/02/02 21:36:34;;;;;;;15.18;6.72;;;;;;;8.88;83.04;102165.66;5027072;28;20041;-64
2022/02/02 21:39:07;;;;;;;13.90;5.28;;;;;;;8.98;83.09;102170.84;5027685;28;20049;-65
2022/02/02 21:41:36;;;;;;;12.77;5.60;;;;;;;8.89;83.08;102163.03;5024070;28;20029;-64
2022/02/02 21:44:04;;;;;;;16.70;6.10;;;;;;;9.00;82.61;102162.09;5026968;28;20539;-65
2022/02/02 21:46:29;;;;;;;17.65;6.63;;;;;;;9.04;82.40;102167.31;5025518;28;20091;-66
2022/02/02 21:48:56;;;;;;;12.38;6.18;;;;;;;9.11;82.51;102173.41;5031223;28;20032;-64
2022/02/02 21:51:30;;;;;;;10.75;5.80;;;;;;;9.13;82.42;102170.75;5045909;28;20064;-63
2022/02/02 21:53:56;;;;;;;10.00;5.15;;;;;;;9.08;82.58;102173.41;5046528;28;20029;-64
2022/02/02 21:56:22;;;;;;;12.45;5.30;;;;;;;9.13;82.35;102162.88;5028907;28;20033;-63
2022/02/02 21:58:48;;;;;;;14.13;5.68;;;;;;;9.12;82.12;102161.97;5046533;28;20056;-64
2022/02/02 22:01:14;;;;;;;18.90;5.32;;;;;;;9.09;82.55;102157.63;5006102;28;20037;-63
2022/02/02 22:03:39;;;;;;;8.23;5.70;;;;;;;9.15;82.20;102161.97;5027967;28;20030;-63
2022/02/02 22:06:05;;;;;;;19.58;6.20;;;;;;;9.15;81.81;102159.34;5026894;28;20178;-63
2022/02/02 22:08:30;;;;;;;10.18;5.10;;;;;;;9.23;81.71;102161.94;5027178;28;20026;-65
2022/02/02 22:10:55;;;;;;;12.45;5.30;;;;;;;9.19;81.64;102150.56;5027350;28;20025;-64
2022/02/02 22:13:24;;;;;;;13.63;5.20;;;;;;;9.19;81.54;102161.09;5027229;28;20479;-64
2022/02/02 22:15:53;;;;;;;10.52;4.60;;;;;;;9.23;81.69;102161.94;5026593;28;20029;-63
2022/02/02 22:18:19;;;;;;;;;;;;;;;9.21;81.17;102159.31;5027847;28;20036;-63
2022/02/02 22:20:45;;;;;;;10.85;4.25;;;;;;;9.23;81.25;102157.53;5026884;28;20396;-64
2022/02/02 22:23:11;;;;;;;12.82;5.47;;;;;;;9.28;81.01;102164.53;5027382;28;20013;-63
2022/02/02 22:25:36;;;;;;;11.40;4.95;;;;;;;9.28;80.88;102157.53;5027433;28;20044;-63
2022/02/02 22:28:01;;;;;;;12.07;5.05;;;;;;;9.27;81.02;102155.75;5026749;28;20404;-63
2022/02/02 22:30:27;;;;;;;11.45;5.68;;;;;;;9.27;81.00;102155.75;5026908;28;20025;-62
2022/02/02 22:32:52;;;;;;;13.55;5.47;;;;;;;9.23;81.00;102149.66;5027075;28;20581;-63